Cement, Oklahoma
Current Conditions -  °F | °C
As of 2:15 PM on Sunday 23 Nov 2014 (Local Time) from KCHK Reporting Station
Clear Clear  
Wind Chill: 63°   Ceiling: Unl
Heat Index: 63°   Visibility: 10mi
Dew Point: 48°   Wind: 16mph
Humidity: 59%   Direction: 330°NNW
Pressure: 29.35"   Gusts: NA
Location:  34.93°N, 98.14°W
Report Text: KCHK 232015Z AUTO 33014KT 10SM CLR 17/09 A2935 RMK AO2
Loading
Personal Weather Stations






























Interactive Weather Map New forecast layout! Learn more

10-Day Weather Forecast

Advertisements
Track Severe Weather on mobile